aviador You're here:

LFGJ Decoded Metar

DOLE in FRANCE
Report Time2018-02-20 03:30:00
UTC Time2018-02-20 03:41:01
Flight Rules mvfr MVFR
Wind070° at 02 kt
W.Decomp.*RWY 05: 1.9 kt HW 0.7 kt RCW
W.Rank070° ranks 15
Current wind is below 070° avg. (3.5)
Visibility6000 m
Phenomena:N/A
Clouds:N/A
Expected CloudBase > 400 ft AGL from Temp-Dew spread
CeilingNone
Temp01°C (ISA -13)
Dew Point00°C (93% RH)
AAT-1.7°C
QNH1014 hPa
Density Alt-853 ft
Elevation643 ft
Report Wrong Elevation
Raw Report
METAR LFGJ 200330Z AUTO 07002KT 6000 NSC 01/00 Q1014=

Extra information for LFGJ:More info

Metar Taf Metar & Taf Last 4 Metars F.Rules Stats Wind Profile Meteogram Temp Stats Airport Information Weather charts Add Link Nearby VenuesMetar ALERT Operation Metar Decoded Social comments